METAR Data
IDs: Format: Raw Decoded Include TAF

Data at: 0716 UTC 23 Feb 2019

PAUN 230656Z AUTO 09015KT 10SM FEW041 M03/M06 A3013 RMK AO2 SLP206 T10281061 FZRANO
PAUN 230556Z AUTO 09013KT 10SM SCT043 M03/M06 A3013 RMK AO2 SLP207 60000 T10281056 11011 21028 50005 FZRANO
PAUN 230456Z AUTO 09010KT 10SM OVC043 M02/M05 A3013 RMK AO2 SLP209 T10221050 FZRANO
PAUN 230356Z AUTO 10012KT 10SM CLR M02/M04 A3012 RMK AO2 SNE44 SLP204 P0000 T10171044 FZRANO
PAUN 230256Z AUTO 10013KT 7SM -SN CLR M02/M04 A3011 RMK AO2 SLP202 P0000 60000 T10221044 58002 FZRANO
PAUN 230156Z AUTO 11016KT 8SM -SN CLR M02/M04 A3012 RMK AO2 SLP203 P0000 T10171039 FZRANO
PAUN 230056Z AUTO 11013KT 9SM -SN CLR M02/M04 A3012 RMK AO2 SLP204 P0000 T10171039 FZRANO
PAUN 222356Z AUTO 12017KT 8SM -SN CLR M02/M04 A3012 RMK AO2 SLP205 P0000 60000 T10171044 11017 21039 58003 FZRANO
PAUN 222256Z AUTO 12016KT 9SM -SN CLR M02/M04 A3013 RMK AO2 SLP208 P0000 T10171044 FZRANO
PAUN 222156Z AUTO 09013KT 9SM -SN CLR M02/M05 A3013 RMK AO2 SNE16B42 SLP209 P0000 T10221050 FZRANO
PAUN 222056Z AUTO 12014G22KT 9SM -SN CLR M02/M05 A3013 RMK AO2 SNB33 SLP208 P0000 60000 T10171050 50002 FZRANO
PAUN 221956Z AUTO 11019G23KT 10SM FEW025 SCT035 M02/M06 A3014 RMK AO2 PK WND 09028/1919 SLP209 T10221056 FZRANO
PAUN 221856Z AUTO 08013G19KT 10SM CLR M03/M06 A3013 RMK AO2 SLP208 T10281061 FZRANO
PAUN 221756Z AUTO 08016KT 10SM OVC046 M04/M07 A3013 RMK AO2 SLP206 60000 T10391067 11033 21056 56006 FZRANO
PAUN 221716Z AUTO 07015KT 10SM SCT025 OVC036 M05/M07 A3013 RMK AO2 FZRANO
PAUN 221656Z AUTO 07016KT 10SM BKN027 OVC034 M05/M07 A3013 RMK AO2 SLP208 T10501072 FZRANO
PAUN 221652Z AUTO 06016KT 10SM BKN027 OVC034 M05/M07 A3014 RMK AO2 FZRANO
PAUN 221556Z AUTO 07016KT 10SM SCT041 SCT050 M05/M08 A3014 RMK AO2 SLP212 T10501078 FZRANO
PAUN 221456Z AUTO 06017KT 10SM CLR M05/M08 A3014 RMK AO2 SLP212 60000 T10501078 58007 FZRANO
PAUN 221356Z AUTO 07012KT 9SM FEW033 M04/M07 A3016 RMK AO2 SNB10E54 SLP216 P0000 T10441072 FZRANO
PAUN 221343Z AUTO 06013KT 9SM -SN SCT023 BKN033 M04/M07 A3015 RMK AO2 SNB10 P0000 FZRANO
PAUN 221325Z AUTO 06013KT 6SM -SN BKN023 BKN033 M04/M07 A3016 RMK AO2 SNB10 P0000 FZRANO
PAUN 221256Z AUTO 07013KT 10SM CLR M04/M08 A3016 RMK AO2 SLP218 T10441078 FZRANO
PAUN 221156Z AUTO 08011KT 10SM CLR M06/M08 A3016 RMK AO2 SLP218 60000 T10561083 11022 21061 51002 FZRANO
PAUN 221056Z AUTO 08013KT 10SM SCT043 M06/M08 A3016 RMK AO2 SLP218 T10561083 FZRANO
PAUN 220956Z AUTO 08010KT 10SM SCT042 M06/M09 A3016 RMK AO2 SLP217 T10611089 FZRANO
PAUN 220856Z AUTO 09009KT 10SM FEW044 M06/M08 A3016 RMK AO2 SLP216 60000 T10611078 410221067 53018 FZRANO
PAUN 220756Z AUTO 10008KT 10SM SCT048 M06/M08 A3013 RMK AO2 SLP209 T10561078 FZRANO
PAUN 220656Z AUTO 18007KT 9SM CLR M02/M05 A3012 RMK AO2 SNE54 SLP203 P0000 T10221050 FZRANO
PAUN 220556Z AUTO 20015KT 7SM -SN FEW030 M02/M04 A3010 RMK AO2 SLP198 P0000 60000 T10221044 11022 21028 51015 FZRANO
PAUN 220456Z AUTO 20013KT 9SM -SN SCT021 SCT026 M02/M05 A3009 RMK AO2 SNB50 SLP195 P0000 T10221050 FZRANO
PAUN 220356Z AUTO 19007KT 10SM BKN025 OVC036 M02/M06 A3008 RMK AO2 SNE18B39E49 SLP190 P0000 T10221056 FZRANO
PAUN 220256Z AUTO 19013KT 9SM -SN FEW024 SCT030 OVC036 M02/M06 A3006 RMK AO2 SLP183 P0000 60000 T10221056 53013 FZRANO
PAUN 220211Z AUTO 19016KT 9SM -SN FEW018 SCT024 OVC033 M02/M05 A3004 RMK AO2 P0000 FZRANO
PAUN 220156Z AUTO 20012KT 7SM -SN SCT018 BKN023 OVC037 M03/M05 A3004 RMK AO2 SLP178 P0000 T10281050 FZRANO
PAUN 220143Z AUTO 19014G19KT 5SM -SN BKN019 M02/M05 A3004 RMK AO2 P0000 FZRANO
PAUN 220056Z AUTO 18008KT 9SM -SN CLR M03/M05 A3003 RMK AO2 SLP174 P0000 T10281050 FZRANO
PAUN 212356Z AUTO 20013KT 9SM -SN CLR M03/M06 A3002 RMK AO2 WSHFT 2315 SLP170 P0000 60000 T10281056 11022 21067 51014 FZRANO
PAUN 212335Z AUTO 21015KT 9SM -SN CLR M03/M05 A3001 RMK AO2 WSHFT 2315 P0000 FZRANO
PAUN 212256Z AUTO 10012G15KT 9SM -SN CLR M06/M07 A3002 RMK AO2 SLP169 P0000 T10561072 FZRANO
PAUN 212156Z AUTO 07012KT 8SM -SN CLR M06/M08 A3000 RMK AO2 SLP163 P0000 T10561078 FZRANO
PAUN 212056Z AUTO 07011KT 9SM -SN CLR M06/M08 A2998 RMK AO2 SLP156 P0000 60000 T10611078 51023 FZRANO
PAUN 212048Z AUTO 08014KT 3SM -SN BR CLR M06/M08 A2998 RMK AO2 P0000 FZRANO
PAUN 212040Z AUTO 07014KT 1 1/2SM -SN BR CLR M06/M08 A2998 RMK AO2 P0000 FZRANO
PAUN 212031Z AUTO 08012KT 1SM -SN BR CLR M06/M08 A2997 RMK AO2 P0000 FZRANO
PAUN 211956Z AUTO 07011KT 1 1/4SM -SN BR CLR M06/M08 A2996 RMK AO2 SLP150 P0000 T10611078 FZRANO
PAUN 211949Z AUTO 06013KT 1SM -SN BR CLR M07/M08 A2996 RMK AO2 P0000 FZRANO
PAUN 211928Z AUTO 07014KT 1 1/4SM -SN BR CLR M07/M08 A2995 RMK AO2 P0000 FZRANO
PAUN 211923Z AUTO 06008KT 3/4SM -SN BR CLR M07/M08 A2995 RMK AO2 P0000 FZRANO